createdAt,value
2023-04-15T00:00:30.924Z,5.90
2023-04-15T00:02:57.441Z,6.45
2023-04-15T00:05:24.268Z,7.25
2023-04-15T00:07:50.588Z,7.28
2023-04-15T00:10:16.924Z,5.55
2023-04-15T00:12:43.297Z,7.55
2023-04-15T00:15:10.102Z,7.25
2023-04-15T00:17:36.633Z,5.90
2023-04-15T00:20:03.187Z,5.82
2023-04-15T00:22:29.553Z,5.57
2023-04-15T00:24:55.945Z,5.20
2023-04-15T00:27:22.259Z,6.45
2023-04-15T00:29:48.651Z,5.78
2023-04-15T00:32:15.041Z,6.15
2023-04-15T00:34:41.797Z,5.95
2023-04-15T00:37:09.601Z,6.05
2023-04-15T00:39:35.916Z,6.93
2023-04-15T00:42:04.126Z,8.80
2023-04-15T00:44:30.508Z,6.65
2023-04-15T00:46:58.676Z,7.65
2023-04-15T00:49:25.682Z,6.60
2023-04-15T00:51:52.121Z,5.30
2023-04-15T00:54:18.795Z,6.15
2023-04-15T00:56:46.132Z,6.85
2023-04-15T00:59:14.884Z,5.90
2023-04-15T01:01:41.509Z,5.32
2023-04-15T01:04:08.033Z,5.97
2023-04-15T01:06:34.686Z,5.25
2023-04-15T01:09:01.416Z,4.75
2023-04-15T01:11:28.147Z,5.97
2023-04-15T01:13:56.352Z,6.00
2023-04-15T01:16:22.955Z,4.55
2023-04-15T01:18:49.434Z,5.55
2023-04-15T01:21:16.363Z,5.05
2023-04-15T01:23:46.532Z,4.50
2023-04-15T01:26:13.496Z,3.85
2023-04-15T01:28:39.960Z,5.00
2023-04-15T01:31:11.704Z,4.05
2023-04-15T01:33:38.926Z,4.35
2023-04-15T01:36:06.267Z,4.63
2023-04-15T01:38:33.282Z,4.18
2023-04-15T01:40:59.580Z,3.80
2023-04-15T01:43:26.840Z,4.13
2023-04-15T01:45:53.278Z,4.20
2023-04-15T01:48:19.646Z,4.50
2023-04-15T01:50:46.063Z,4.97
2023-04-15T01:53:12.625Z,4.18
2023-04-15T01:55:38.947Z,5.03
2023-04-15T01:58:05.452Z,4.13
2023-04-15T02:00:31.860Z,4.07
2023-04-15T02:02:58.610Z,3.83
2023-04-15T02:05:25.264Z,4.40
2023-04-15T02:07:54.479Z,3.88
2023-04-15T02:10:20.835Z,4.28
2023-04-15T02:12:47.281Z,4.15
2023-04-15T02:15:13.828Z,4.00
2023-04-15T02:17:40.212Z,4.28
2023-04-15T02:20:07.405Z,4.03
2023-04-15T02:22:34.114Z,3.80
2023-04-15T02:25:00.618Z,5.78
2023-04-15T02:27:26.939Z,3.88
2023-04-15T02:29:53.440Z,4.25
2023-04-15T02:32:20.206Z,3.72
2023-04-15T02:34:46.631Z,4.43
2023-04-15T02:37:13.607Z,4.35
2023-04-15T02:39:40.058Z,4.72
2023-04-15T02:42:06.398Z,4.13
2023-04-15T02:44:33.210Z,4.03
2023-04-15T02:46:59.599Z,4.15
2023-04-15T02:49:26.544Z,3.65
2023-04-15T02:51:52.896Z,4.28
2023-04-15T02:54:20.534Z,3.92
2023-04-15T02:56:47.115Z,4.28
2023-04-15T02:59:13.532Z,3.58
2023-04-15T03:01:39.980Z,4.18
2023-04-15T03:04:06.693Z,4.70
2023-04-15T03:06:33.156Z,3.70
2023-04-15T03:08:59.727Z,5.25
2023-04-15T03:11:26.542Z,4.35
2023-04-15T03:13:53.346Z,4.05
2023-04-15T03:16:19.743Z,4.47
2023-04-15T03:18:46.454Z,5.10
2023-04-15T03:21:12.939Z,4.40
2023-04-15T03:23:39.475Z,4.45
2023-04-15T03:26:05.942Z,4.60
2023-04-15T03:28:32.761Z,4.82
2023-04-15T03:30:59.975Z,4.07
2023-04-15T03:33:26.374Z,4.70
2023-04-15T03:35:53.427Z,4.22
2023-04-15T03:38:19.874Z,4.60
2023-04-15T03:40:47.250Z,4.38
2023-04-15T03:43:13.647Z,4.10
2023-04-15T03:45:40.088Z,4.63
2023-04-15T03:48:16.424Z,4.18
2023-04-15T03:50:43.964Z,5.28
2023-04-15T03:53:10.574Z,4.18
2023-04-15T03:55:36.914Z,4.00
2023-04-15T03:58:03.476Z,4.18
2023-04-15T04:00:29.934Z,4.40
2023-04-15T04:02:56.580Z,5.25
2023-04-15T04:05:23.075Z,4.63
2023-04-15T04:07:49.415Z,4.28
2023-04-15T04:10:16.184Z,5.15
2023-04-15T04:12:42.484Z,4.25
2023-04-15T04:15:09.185Z,3.92
2023-04-15T04:17:35.743Z,4.57
2023-04-15T04:20:02.092Z,4.60
2023-04-15T04:22:28.426Z,5.43
2023-04-15T04:24:54.927Z,5.95
2023-04-15T04:27:21.445Z,5.00
2023-04-15T04:29:47.939Z,6.70
2023-04-15T04:32:14.441Z,6.03
2023-04-15T04:34:40.983Z,5.18
2023-04-15T04:37:07.705Z,5.10
2023-04-15T04:39:34.104Z,4.68
2023-04-15T04:42:00.641Z,5.18
2023-04-15T04:44:26.984Z,5.38
2023-04-15T04:46:53.408Z,4.90
2023-04-15T04:49:19.833Z,5.32
2023-04-15T04:51:46.231Z,5.25
2023-04-15T04:54:12.572Z,5.60
2023-04-15T04:56:39.149Z,5.28
2023-04-15T04:59:05.812Z,5.97
2023-04-15T05:01:32.313Z,5.85
2023-04-15T05:03:59.070Z,6.70
2023-04-15T05:06:25.602Z,5.20
2023-04-15T05:08:52.095Z,5.43
2023-04-15T05:11:18.637Z,5.68
2023-04-15T05:13:45.131Z,5.55
2023-04-15T05:16:11.534Z,5.28
2023-04-15T05:18:38.099Z,6.32
2023-04-15T05:21:04.832Z,5.90
2023-04-15T05:23:31.380Z,5.22
2023-04-15T05:25:57.984Z,6.90
2023-04-15T05:28:24.398Z,6.32
2023-04-15T05:30:50.876Z,5.65
2023-04-15T05:33:17.274Z,5.32
2023-04-15T05:35:43.697Z,5.50
2023-04-15T05:38:10.526Z,5.00
2023-04-15T05:40:36.989Z,5.13
2023-04-15T05:43:03.419Z,4.50
2023-04-15T05:45:29.986Z,3.83
2023-04-15T05:47:56.371Z,4.28
2023-04-15T05:50:22.693Z,5.32
2023-04-15T05:52:49.228Z,5.05
2023-04-15T05:55:15.673Z,5.47
2023-04-15T05:57:42.228Z,4.80
2023-04-15T06:00:09.095Z,5.80
2023-04-15T06:02:35.585Z,5.18
2023-04-15T06:05:02.189Z,4.15
2023-04-15T06:07:28.766Z,4.45
2023-04-15T06:09:55.211Z,5.88
2023-04-15T06:12:21.653Z,5.15
2023-04-15T06:14:47.962Z,6.70
2023-04-15T06:17:14.451Z,6.10
2023-04-15T06:19:40.896Z,5.50
2023-04-15T06:22:07.394Z,5.80
2023-04-15T06:24:33.744Z,5.65
2023-04-15T06:27:00.141Z,4.10
2023-04-15T06:29:26.604Z,4.78
2023-04-15T06:31:53.303Z,5.28
2023-04-15T06:34:20.101Z,4.35
2023-04-15T06:36:46.515Z,5.07
2023-04-15T06:39:12.965Z,4.80
2023-04-15T06:41:39.411Z,5.85
2023-04-15T06:44:05.779Z,5.57
2023-04-15T06:46:32.538Z,6.72
2023-04-15T06:48:59.333Z,5.00
2023-04-15T06:51:26.801Z,4.72
2023-04-15T06:53:53.452Z,4.68
2023-04-15T06:56:19.976Z,4.47
2023-04-15T06:58:46.334Z,5.38
2023-04-15T07:01:14.076Z,5.68
2023-04-15T07:03:40.581Z,5.07
2023-04-15T07:06:06.975Z,5.10
2023-04-15T07:08:33.742Z,7.90
2023-04-15T07:11:01.410Z,6.05
2023-04-15T07:13:27.934Z,4.55
2023-04-15T07:15:54.368Z,4.60
2023-04-15T07:18:20.692Z,4.65
2023-04-15T07:20:47.235Z,4.85
2023-04-15T07:23:13.550Z,4.78
2023-04-15T07:25:40.084Z,5.25
2023-04-15T07:28:06.412Z,4.10
2023-04-15T07:30:32.935Z,4.85
2023-04-15T07:32:59.464Z,6.35
2023-04-15T07:35:26.093Z,5.35
2023-04-15T07:37:52.640Z,4.90
2023-04-15T07:40:18.976Z,5.35
2023-04-15T07:42:45.696Z,5.15
2023-04-15T07:45:12.189Z,5.18
2023-04-15T07:47:38.532Z,4.05
2023-04-15T07:50:05.329Z,4.28
2023-04-15T07:52:31.801Z,4.00
2023-04-15T07:54:58.455Z,4.03
2023-04-15T07:57:24.901Z,4.20
2023-04-15T07:59:51.261Z,4.13
2023-04-15T08:02:18.082Z,4.88
2023-04-15T08:04:44.639Z,4.00
2023-04-15T08:07:11.267Z,3.50
2023-04-15T08:09:37.581Z,3.95
2023-04-15T08:12:04.503Z,4.72
2023-04-15T08:14:30.910Z,3.80
2023-04-15T08:16:57.242Z,3.85
2023-04-15T08:19:23.681Z,3.58
2023-04-15T08:21:50.056Z,3.95
2023-04-15T08:24:16.640Z,3.22
2023-04-15T08:26:43.069Z,3.75
2023-04-15T08:29:09.455Z,3.60
2023-04-15T08:31:35.848Z,4.15
2023-04-15T08:34:02.355Z,2.88
2023-04-15T08:36:28.710Z,3.05
2023-04-15T08:38:55.193Z,2.92
2023-04-15T08:41:23.824Z,2.45
2023-04-15T08:43:57.135Z,2.47
2023-04-15T08:46:23.847Z,2.75
2023-04-15T08:48:51.181Z,2.97
2023-04-15T08:51:18.146Z,3.15
2023-04-15T08:53:45.676Z,3.08
2023-04-15T08:56:14.533Z,2.45
2023-04-15T08:58:41.437Z,2.60
2023-04-15T09:01:07.955Z,3.60
2023-04-15T09:03:35.549Z,3.78
2023-04-15T09:06:05.096Z,3.33
2023-04-15T09:08:32.095Z,2.92
2023-04-15T09:10:58.523Z,3.10
2023-04-15T09:13:25.126Z,2.83
2023-04-15T09:15:52.461Z,3.17
2023-04-15T09:18:33.264Z,3.25
2023-04-15T09:21:10.541Z,4.72
2023-04-15T09:23:38.569Z,9.23
2023-04-15T09:26:05.836Z,12.18
2023-04-15T09:28:32.292Z,2.80
2023-04-15T09:31:00.614Z,2.65
2023-04-15T09:33:29.630Z,2.67
2023-04-15T09:35:58.321Z,3.00
2023-04-15T09:38:24.921Z,3.45
2023-04-15T09:40:51.433Z,3.22
2023-04-15T09:43:17.869Z,2.83
2023-04-15T09:45:52.863Z,4.18
2023-04-15T09:48:23.806Z,6.40
2023-04-15T09:50:51.137Z,5.25
2023-04-15T09:53:21.949Z,3.47
2023-04-15T09:55:56.915Z,3.40
2023-04-15T09:58:28.589Z,4.95
2023-04-15T10:00:56.368Z,3.75
2023-04-15T10:03:25.181Z,5.38
2023-04-15T10:05:56.401Z,8.13
2023-04-15T10:08:24.854Z,8.73
2023-04-15T10:10:52.072Z,3.90
2023-04-15T10:13:29.420Z,3.00
2023-04-15T10:16:03.811Z,2.45
2023-04-15T10:18:34.457Z,1.95
2023-04-15T10:21:01.435Z,2.58
2023-04-15T10:23:28.004Z,3.78
2023-04-15T10:25:55.026Z,2.72
2023-04-15T10:28:22.207Z,2.20
2023-04-15T10:30:49.112Z,1.67
2023-04-15T10:33:18.444Z,1.92
2023-04-15T10:35:45.118Z,1.77
2023-04-15T10:38:44.919Z,2.53
2023-04-15T10:41:21.566Z,2.50
2023-04-15T10:43:49.888Z,1.55
2023-04-15T10:46:36.379Z,1.70
2023-04-15T10:49:14.546Z,1.02
2023-04-15T10:51:46.493Z,1.67
2023-04-15T10:54:17.527Z,1.40
2023-04-15T10:56:45.949Z,0.90
2023-04-15T10:59:12.364Z,1.67
2023-04-15T11:01:56.992Z,1.20
2023-04-15T11:04:55.073Z,0.93
2023-04-15T11:07:44.036Z,0.70
2023-04-15T11:10:13.341Z,1.05
2023-04-15T11:12:41.321Z,1.20
2023-04-15T11:15:29.249Z,0.57
2023-04-15T11:17:56.850Z,1.33
2023-04-15T11:20:23.242Z,0.45
2023-04-15T11:23:14.054Z,1.00
2023-04-15T11:25:42.827Z,0.90
2023-04-15T11:28:09.678Z,0.50
2023-04-15T11:30:37.422Z,0.73
2023-04-15T11:33:06.815Z,0.70
2023-04-15T11:35:33.330Z,0.80
2023-04-15T11:38:03.958Z,0.60
2023-04-15T11:40:31.072Z,0.80
2023-04-15T11:43:18.037Z,0.60
2023-04-15T11:45:56.625Z,0.95
2023-04-15T11:48:28.207Z,1.35
2023-04-15T11:50:58.936Z,0.80
2023-04-15T11:53:36.878Z,0.55
2023-04-15T11:56:03.339Z,0.80
2023-04-15T11:58:29.849Z,0.73
2023-04-15T12:01:01.006Z,1.23
2023-04-15T12:03:38.434Z,0.63
2023-04-15T12:06:05.178Z,1.05
2023-04-15T12:09:09.816Z,1.38
2023-04-15T12:11:36.147Z,1.27
2023-04-15T12:14:20.309Z,0.70
2023-04-15T12:16:50.007Z,1.20
2023-04-15T12:19:35.120Z,0.90
2023-04-15T12:22:03.550Z,1.30
2023-04-15T12:24:34.703Z,1.10
2023-04-15T12:27:07.925Z,0.88
2023-04-15T12:29:35.701Z,0.82
2023-04-15T12:32:07.692Z,0.73
2023-04-15T12:34:37.013Z,0.73
2023-04-15T12:37:05.458Z,1.02
2023-04-15T12:39:42.461Z,0.75
2023-04-15T12:42:09.815Z,0.95
2023-04-15T12:44:37.453Z,0.82
2023-04-15T12:47:04.137Z,1.02
2023-04-15T12:49:31.683Z,1.15
2023-04-15T12:51:59.266Z,1.13
2023-04-15T12:54:26.131Z,0.80
2023-04-15T12:56:52.771Z,0.77
2023-04-15T12:59:19.201Z,1.20
2023-04-15T13:01:47.356Z,0.90
2023-04-15T13:04:14.658Z,1.33
2023-04-15T13:06:40.988Z,1.40
2023-04-15T13:09:07.868Z,1.15
2023-04-15T13:11:34.666Z,0.77
2023-04-15T13:14:02.565Z,1.08
2023-04-15T13:16:29.756Z,1.35
2023-04-15T13:18:56.459Z,0.98
2023-04-15T13:21:22.854Z,1.25
2023-04-15T13:23:49.652Z,1.60
2023-04-15T13:26:16.139Z,1.20
2023-04-15T13:28:42.568Z,1.35
2023-04-15T13:31:09.304Z,1.35
2023-04-15T13:33:35.861Z,1.10
2023-04-15T13:36:02.928Z,1.00
2023-04-15T13:38:29.278Z,1.25
2023-04-15T13:40:55.621Z,1.20
2023-04-15T13:43:22.029Z,1.25
2023-04-15T13:45:48.433Z,1.38
2023-04-15T13:48:14.933Z,1.60
2023-04-15T13:50:41.808Z,1.35
2023-04-15T13:53:08.222Z,1.42
2023-04-15T13:55:34.648Z,1.00
2023-04-15T13:58:00.972Z,1.60
2023-04-15T14:00:27.440Z,1.23
2023-04-15T14:02:53.941Z,1.50
2023-04-15T14:05:20.785Z,1.30
2023-04-15T14:07:47.226Z,2.00
2023-04-15T14:10:13.782Z,1.50
2023-04-15T14:12:40.234Z,1.65
2023-04-15T14:15:08.023Z,1.92
2023-04-15T14:17:34.637Z,1.70
2023-04-15T14:20:01.302Z,1.70
2023-04-15T14:22:27.988Z,1.50
2023-04-15T14:24:54.484Z,2.30
2023-04-15T14:27:21.458Z,16.65
2023-04-15T14:29:47.874Z,10.93
2023-04-15T14:32:15.633Z,3.67
2023-04-15T14:34:43.323Z,4.10
2023-04-15T14:37:09.927Z,4.95
2023-04-15T14:39:36.362Z,4.07
2023-04-15T14:42:02.730Z,4.28
2023-04-15T14:44:29.284Z,4.03
2023-04-15T14:46:55.999Z,2.88
2023-04-15T14:49:22.525Z,6.30
2023-04-15T14:51:49.329Z,13.55
2023-04-15T14:54:16.050Z,7.70
2023-04-15T14:56:42.383Z,9.27
2023-04-15T14:59:08.720Z,5.97
2023-04-15T15:01:35.261Z,3.25
2023-04-15T15:04:01.983Z,2.42
2023-04-15T15:06:28.433Z,1.70
2023-04-15T15:08:54.884Z,1.83
2023-04-15T15:11:21.291Z,1.60
2023-04-15T15:13:47.634Z,2.97
2023-04-15T15:16:14.818Z,1.80
2023-04-15T15:18:41.222Z,1.77
2023-04-15T15:21:07.672Z,1.70
2023-04-15T15:23:33.998Z,2.40
2023-04-15T15:26:00.521Z,2.88
2023-04-15T15:28:27.060Z,4.03
2023-04-15T15:30:53.475Z,3.38
2023-04-15T15:33:20.167Z,3.25
2023-04-15T15:35:46.856Z,4.15
2023-04-15T15:38:13.550Z,2.55
2023-04-15T15:40:39.882Z,2.97
2023-04-15T15:43:06.358Z,2.35
2023-04-15T15:45:32.836Z,3.40
2023-04-15T15:47:59.430Z,2.72
2023-04-15T15:50:25.861Z,4.32
2023-04-15T15:52:52.301Z,2.50
2023-04-15T15:55:18.904Z,3.90
2023-04-15T15:57:45.344Z,4.60
2023-04-15T16:00:13.133Z,3.05
2023-04-15T16:03:05.331Z,3.92
2023-04-15T16:05:26.253Z,2.80
2023-04-15T16:07:52.756Z,2.05
2023-04-15T16:10:19.409Z,1.90
2023-04-15T16:12:46.211Z,2.25
2023-04-15T16:15:12.936Z,2.90
2023-04-15T16:17:39.409Z,1.67
2023-04-15T16:20:06.831Z,2.13
2023-04-15T16:22:34.719Z,2.53
2023-04-15T16:25:01.194Z,1.60
2023-04-15T16:27:28.231Z,2.67
2023-04-15T16:29:54.702Z,1.95
2023-04-15T16:32:21.310Z,2.10
2023-04-15T16:34:47.982Z,2.47
2023-04-15T16:37:14.405Z,2.15
2023-04-15T16:39:40.791Z,2.28
2023-04-15T16:42:07.750Z,2.17
2023-04-15T16:44:34.080Z,2.75
2023-04-15T16:47:00.450Z,2.55
2023-04-15T16:49:26.890Z,2.58
2023-04-15T16:51:54.614Z,2.03
2023-04-15T16:54:21.494Z,2.15
2023-04-15T16:56:48.047Z,2.90
2023-04-15T16:59:14.599Z,2.55
2023-04-15T17:01:41.078Z,1.58
2023-04-15T17:04:07.505Z,2.42
2023-04-15T17:06:33.978Z,1.75
2023-04-15T17:09:00.352Z,2.47
2023-04-15T17:11:28.285Z,2.30
2023-04-15T17:13:54.986Z,3.03
2023-04-15T17:16:21.418Z,2.53
2023-04-15T17:18:47.947Z,2.40
2023-04-15T17:21:14.598Z,2.92
2023-04-15T17:23:40.914Z,2.95
2023-04-15T17:26:08.228Z,2.45
2023-04-15T17:28:35.216Z,2.13
2023-04-15T17:31:02.017Z,1.95
2023-04-15T17:34:02.499Z,2.17
2023-04-15T17:36:14.980Z,1.90
2023-04-15T17:38:41.320Z,2.40
2023-04-15T17:41:07.721Z,2.13
2023-04-15T17:43:34.348Z,2.10
2023-04-15T17:46:01.034Z,2.53
2023-04-15T17:48:27.544Z,3.00
2023-04-15T17:50:53.999Z,2.67
2023-04-15T17:53:20.367Z,2.75
2023-04-15T17:55:46.744Z,4.03
2023-04-15T17:58:13.237Z,3.40
2023-04-15T18:00:39.617Z,3.20
2023-04-15T18:03:06.133Z,3.50
2023-04-15T18:05:32.603Z,3.40
2023-04-15T18:07:58.996Z,2.80
2023-04-15T18:10:25.471Z,3.20
2023-04-15T18:12:51.845Z,3.55
2023-04-15T18:15:18.970Z,3.97
2023-04-15T18:17:45.403Z,3.25
2023-04-15T18:20:11.868Z,3.03
2023-04-15T18:22:38.395Z,3.55
2023-04-15T18:25:05.522Z,3.75
2023-04-15T18:27:33.321Z,3.17
2023-04-15T18:30:00.168Z,3.20
2023-04-15T18:32:26.669Z,3.15
2023-04-15T18:34:53.053Z,3.40
2023-04-15T18:37:19.487Z,3.28
2023-04-15T18:39:45.939Z,4.00
2023-04-15T18:42:12.333Z,4.03
2023-04-15T18:44:38.642Z,7.85
2023-04-15T18:47:05.514Z,3.92
2023-04-15T18:49:32.669Z,3.60
2023-04-15T18:51:59.584Z,4.13
2023-04-15T18:54:26.051Z,3.42
2023-04-15T18:56:52.635Z,4.20
2023-04-15T18:59:28.572Z,2.97
2023-04-15T19:01:58.018Z,3.47
2023-04-15T19:04:24.534Z,4.10
2023-04-15T19:06:51.190Z,3.92
2023-04-15T19:09:17.645Z,4.00
2023-04-15T19:11:43.947Z,4.38
2023-04-15T19:14:11.138Z,3.60
2023-04-15T19:16:37.667Z,3.72
2023-04-15T19:19:04.272Z,3.00
2023-04-15T19:21:31.955Z,4.10
2023-04-15T19:23:58.884Z,4.30
2023-04-15T19:26:25.262Z,4.40
2023-04-15T19:28:51.632Z,5.18
2023-04-15T19:31:18.146Z,4.10
2023-04-15T19:33:44.751Z,4.43
2023-04-15T19:36:11.058Z,4.65
2023-04-15T19:38:37.724Z,4.45
2023-04-15T19:41:04.461Z,4.63
2023-04-15T19:43:33.090Z,5.07
2023-04-15T19:45:59.619Z,5.30
2023-04-15T19:48:26.067Z,6.30
2023-04-15T19:50:52.639Z,4.97
2023-04-15T19:53:19.077Z,5.75
2023-04-15T19:55:45.930Z,6.95
2023-04-15T19:58:12.457Z,6.70
2023-04-15T20:00:38.989Z,6.97
2023-04-15T20:03:05.728Z,7.63
2023-04-15T20:05:32.320Z,7.13
2023-04-15T20:08:01.322Z,9.40
2023-04-15T20:10:27.930Z,7.90
2023-04-15T20:12:54.385Z,7.50
2023-04-15T20:15:21.260Z,7.97
2023-04-15T20:17:47.690Z,8.43
2023-04-15T20:20:14.645Z,7.93
2023-04-15T20:22:41.133Z,8.35
2023-04-15T20:25:08.010Z,10.13
2023-04-15T20:27:34.440Z,8.52
2023-04-15T20:30:01.009Z,8.35
2023-04-15T20:32:27.708Z,9.25
2023-04-15T20:34:54.328Z,9.63
2023-04-15T20:37:20.823Z,9.30
2023-04-15T20:39:47.228Z,9.60
2023-04-15T20:42:13.671Z,10.27
2023-04-15T20:44:40.208Z,9.75
2023-04-15T20:47:06.992Z,10.57
2023-04-15T20:49:37.302Z,9.07
2023-04-15T20:52:05.451Z,10.55
2023-04-15T20:54:31.920Z,10.93
2023-04-15T20:56:58.399Z,12.82
2023-04-15T20:59:25.116Z,17.40
2023-04-15T21:01:51.876Z,18.35
2023-04-15T21:04:18.422Z,18.55
2023-04-15T21:06:44.851Z,17.38
2023-04-15T21:09:11.247Z,15.48
2023-04-15T21:11:57.385Z,15.70
2023-04-15T21:14:24.097Z,13.40
2023-04-15T21:16:50.801Z,10.75
2023-04-15T21:19:17.179Z,12.88
2023-04-15T21:21:43.565Z,11.07
2023-04-15T21:24:09.985Z,10.02
2023-04-15T21:26:36.555Z,11.32
2023-04-15T21:29:03.180Z,11.65
2023-04-15T21:31:30.124Z,11.27
2023-04-15T21:33:56.641Z,12.82
2023-04-15T21:36:23.079Z,13.27
2023-04-15T21:38:49.520Z,11.90
2023-04-15T21:41:16.098Z,9.00
2023-04-15T21:43:42.907Z,9.95
2023-04-15T21:46:24.476Z,10.18
2023-04-15T21:48:55.360Z,10.65
2023-04-15T21:51:21.879Z,11.57
2023-04-15T21:53:48.456Z,9.60
2023-04-15T21:56:14.978Z,10.27
2023-04-15T21:58:41.481Z,9.45
2023-04-15T22:01:08.013Z,8.55
2023-04-15T22:03:35.057Z,8.80
2023-04-15T22:06:03.278Z,8.00
2023-04-15T22:08:30.998Z,6.72
2023-04-15T22:11:00.215Z,7.82
2023-04-15T22:13:26.673Z,8.07
2023-04-15T22:15:53.032Z,7.25
2023-04-15T22:18:19.809Z,7.97
2023-04-15T22:20:46.196Z,9.02
2023-04-15T22:23:12.520Z,9.63
2023-04-15T22:25:38.929Z,8.82
2023-04-15T22:28:07.008Z,10.23
2023-04-15T22:30:43.283Z,8.52
2023-04-15T22:33:09.936Z,10.48
2023-04-15T22:35:36.834Z,8.07
2023-04-15T22:38:05.002Z,6.25
2023-04-15T22:40:31.781Z,6.80
2023-04-15T22:42:58.454Z,7.07
2023-04-15T22:45:24.853Z,6.70
2023-04-15T22:47:51.333Z,6.40
2023-04-15T22:50:17.942Z,6.90
2023-04-15T22:52:44.247Z,7.35
2023-04-15T22:55:10.598Z,7.35
2023-04-15T22:57:37.030Z,8.00
2023-04-15T23:00:05.805Z,7.13
2023-04-15T23:02:32.619Z,7.50
2023-04-15T23:04:59.291Z,8.13
2023-04-15T23:07:27.916Z,7.78
2023-04-15T23:09:54.272Z,7.90
2023-04-15T23:12:20.975Z,9.60
2023-04-15T23:14:47.549Z,9.95
2023-04-15T23:17:13.922Z,10.50
2023-04-15T23:19:40.241Z,10.18
2023-04-15T23:22:06.730Z,11.38
2023-04-15T23:24:33.101Z,10.82
2023-04-15T23:26:59.796Z,9.98
2023-04-15T23:29:26.213Z,12.65
2023-04-15T23:31:52.779Z,12.93
2023-04-15T23:34:19.678Z,10.70
2023-04-15T23:36:46.249Z,9.60
2023-04-15T23:39:12.627Z,10.15
2023-04-15T23:41:39.102Z,10.95
2023-04-15T23:44:05.615Z,10.18
2023-04-15T23:46:32.109Z,9.80
2023-04-15T23:48:58.502Z,9.73
2023-04-15T23:51:24.912Z,9.40
2023-04-15T23:53:51.206Z,9.80
2023-04-15T23:56:17.958Z,10.05
2023-04-15T23:58:44.376Z,10.50
